sensor_id;sensor_type;location;lat;lon;timestamp;pressure;altitude;pressure_sealevel;temperature;humidity
73674;BME280;61975;48.660;10.164;2023-05-16T00:02:25;95230.75;;;11.39;100.00
73674;BME280;61975;48.660;10.164;2023-05-16T00:04:51;95233.16;;;11.41;100.00
73674;BME280;61975;48.660;10.164;2023-05-16T00:07:16;95226.38;;;11.42;100.00
73674;BME280;61975;48.660;10.164;2023-05-16T00:09:42;95222.81;;;11.38;100.00
73674;BME280;61975;48.660;10.164;2023-05-16T00:12:07;95226.00;;;11.33;100.00
73674;BME280;61975;48.660;10.164;2023-05-16T00:14:33;95218.06;;;11.27;100.00
73674;BME280;61975;48.660;10.164;2023-05-16T00:17:00;95222.06;;;11.23;100.00
73674;BME280;61975;48.660;10.164;2023-05-16T00:19:26;95220.06;;;11.23;100.00
73674;BME280;61975;48.660;10.164;2023-05-16T00:21:52;95216.50;;;11.19;100.00
73674;BME280;61975;48.660;10.164;2023-05-16T00:24:18;95220.84;;;11.13;100.00
73674;BME280;61975;48.660;10.164;2023-05-16T00:26:43;95213.28;;;11.17;100.00
73674;BME280;61975;48.660;10.164;2023-05-16T00:29:08;95218.47;;;11.19;100.00
73674;BME280;61975;48.660;10.164;2023-05-16T00:31:34;95218.06;;;11.20;100.00
73674;BME280;61975;48.660;10.164;2023-05-16T00:33:59;95218.88;;;11.21;100.00
73674;BME280;61975;48.660;10.164;2023-05-16T00:36:25;95212.53;;;11.17;100.00
73674;BME280;61975;48.660;10.164;2023-05-16T00:38:50;95215.31;;;11.17;100.00
73674;BME280;61975;48.660;10.164;2023-05-16T00:41:16;95214.50;;;11.16;100.00
73674;BME280;61975;48.660;10.164;2023-05-16T00:43:42;95209.34;;;11.11;100.00
73674;BME280;61975;48.660;10.164;2023-05-16T00:46:07;95210.94;;;10.91;100.00
73674;BME280;61975;48.660;10.164;2023-05-16T00:48:33;95207.75;;;10.93;100.00
73674;BME280;61975;48.660;10.164;2023-05-16T00:50:59;95212.09;;;10.87;100.00
73674;BME280;61975;48.660;10.164;2023-05-16T00:53:25;95216.09;;;10.93;100.00
73674;BME280;61975;48.660;10.164;2023-05-16T00:55:51;95218.06;;;10.92;100.00
73674;BME280;61975;48.660;10.164;2023-05-16T00:58:17;95212.91;;;10.87;100.00
73674;BME280;61975;48.660;10.164;2023-05-16T01:00:44;95211.72;;;10.88;100.00
73674;BME280;61975;48.660;10.164;2023-05-16T01:03:11;95201.00;;;10.83;100.00
73674;BME280;61975;48.660;10.164;2023-05-16T01:05:37;95210.50;;;10.68;100.00
73674;BME280;61975;48.660;10.164;2023-05-16T01:08:02;95203.75;;;10.62;100.00
73674;BME280;61975;48.660;10.164;2023-05-16T01:10:34;95205.75;;;10.69;100.00
73674;BME280;61975;48.660;10.164;2023-05-16T01:13:17;95206.94;;;10.75;100.00
73674;BME280;61975;48.660;10.164;2023-05-16T01:24:22;95206.94;;;10.78;100.00
73674;BME280;61975;48.660;10.164;2023-05-16T01:26:51;95197.44;;;10.76;100.00
73674;BME280;61975;48.660;10.164;2023-05-16T01:29:18;95199.41;;;10.72;100.00
73674;BME280;61975;48.660;10.164;2023-05-16T01:31:43;95202.16;;;10.68;100.00
73674;BME280;61975;48.660;10.164;2023-05-16T01:34:08;95197.41;;;10.65;100.00
73674;BME280;61975;48.660;10.164;2023-05-16T01:39:29;95204.56;;;10.59;100.00
73674;BME280;61975;48.660;10.164;2023-05-16T01:42:07;95202.94;;;10.58;100.00
73674;BME280;61975;48.660;10.164;2023-05-16T01:44:44;95207.69;;;10.54;100.00
73674;BME280;61975;48.660;10.164;2023-05-16T01:47:12;95204.09;;;10.36;100.00
73674;BME280;61975;48.660;10.164;2023-05-16T01:49:39;95211.22;;;10.44;100.00
73674;BME280;61975;48.660;10.164;2023-05-16T01:52:12;95193.81;;;10.47;100.00
73674;BME280;61975;48.660;10.164;2023-05-16T01:54:42;95204.13;;;10.50;100.00
73674;BME280;61975;48.660;10.164;2023-05-16T01:57:09;95205.34;;;10.56;100.00
73674;BME280;61975;48.660;10.164;2023-05-16T01:59:35;95196.59;;;10.61;100.00
73674;BME280;61975;48.660;10.164;2023-05-16T02:02:01;95202.19;;;10.65;100.00
73674;BME280;61975;48.660;10.164;2023-05-16T02:04:27;95206.13;;;10.67;100.00
73674;BME280;61975;48.660;10.164;2023-05-16T02:06:53;95207.75;;;10.72;100.00
73674;BME280;61975;48.660;10.164;2023-05-16T02:09:18;95202.19;;;10.72;100.00
73674;BME280;61975;48.660;10.164;2023-05-16T02:11:43;95206.16;;;10.74;100.00
73674;BME280;61975;48.660;10.164;2023-05-16T02:14:10;95209.31;;;10.62;100.00
73674;BME280;61975;48.660;10.164;2023-05-16T02:16:36;95195.03;;;10.60;100.00
73674;BME280;61975;48.660;10.164;2023-05-16T02:19:01;95202.56;;;10.67;100.00
73674;BME280;61975;48.660;10.164;2023-05-16T02:21:26;95205.75;;;10.69;100.00
73674;BME280;61975;48.660;10.164;2023-05-16T02:23:52;95211.72;;;10.71;100.00
73674;BME280;61975;48.660;10.164;2023-05-16T02:26:17;95208.50;;;10.72;100.00
73674;BME280;61975;48.660;10.164;2023-05-16T02:28:43;95214.50;;;10.71;100.00
73674;BME280;61975;48.660;10.164;2023-05-16T02:31:08;95212.50;;;10.68;100.00
73674;BME280;61975;48.660;10.164;2023-05-16T02:33:33;95212.47;;;10.71;100.00
73674;BME280;61975;48.660;10.164;2023-05-16T02:35:59;95210.13;;;10.66;100.00
73674;BME280;61975;48.660;10.164;2023-05-16T02:38:24;95205.75;;;10.69;100.00
73674;BME280;61975;48.660;10.164;2023-05-16T02:40:50;95210.91;;;10.70;100.00
73674;BME280;61975;48.660;10.164;2023-05-16T02:43:15;95202.56;;;10.63;100.00
73674;BME280;61975;48.660;10.164;2023-05-16T02:45:41;95194.25;;;10.63;100.00
73674;BME280;61975;48.660;10.164;2023-05-16T02:48:06;95195.44;;;10.55;100.00
73674;BME280;61975;48.660;10.164;2023-05-16T02:50:32;95199.34;;;10.44;100.00
73674;BME280;61975;48.660;10.164;2023-05-16T02:52:58;95199.72;;;10.32;100.00
73674;BME280;61975;48.660;10.164;2023-05-16T02:55:27;95197.34;;;10.27;100.00
73674;BME280;61975;48.660;10.164;2023-05-16T02:57:52;95199.69;;;10.25;100.00
73674;BME280;61975;48.660;10.164;2023-05-16T03:00:18;95189.34;;;10.15;100.00
73674;BME280;61975;48.660;10.164;2023-05-16T03:02:44;95196.13;;;10.17;100.00
73674;BME280;61975;48.660;10.164;2023-05-16T03:05:10;95192.50;;;10.13;100.00
73674;BME280;61975;48.660;10.164;2023-05-16T03:07:36;95187.78;;;10.14;100.00
73674;BME280;61975;48.660;10.164;2023-05-16T03:10:02;95205.22;;;10.18;100.00
73674;BME280;61975;48.660;10.164;2023-05-16T03:12:27;95201.69;;;10.24;100.00
73674;BME280;61975;48.660;10.164;2023-05-16T03:14:53;95206.84;;;10.29;100.00
73674;BME280;61975;48.660;10.164;2023-05-16T03:17:18;95195.75;;;10.29;100.00
73674;BME280;61975;48.660;10.164;2023-05-16T03:19:44;95197.31;;;10.23;100.00
73674;BME280;61975;48.660;10.164;2023-05-16T03:22:09;95189.00;;;10.20;100.00
73674;BME280;61975;48.660;10.164;2023-05-16T03:24:35;95198.91;;;10.24;100.00
73674;BME280;61975;48.660;10.164;2023-05-16T03:27:00;95193.75;;;10.26;100.00
73674;BME280;61975;48.660;10.164;2023-05-16T03:29:27;95197.28;;;10.16;100.00
73674;BME280;61975;48.660;10.164;2023-05-16T03:31:53;95190.06;;;10.01;100.00
73674;BME280;61975;48.660;10.164;2023-05-16T03:34:19;95194.84;;;10.04;100.00
73674;BME280;61975;48.660;10.164;2023-05-16T03:36:44;95185.41;;;10.09;100.00
73674;BME280;61975;48.660;10.164;2023-05-16T03:39:10;95186.13;;;10.02;100.00
73674;BME280;61975;48.660;10.164;2023-05-16T03:41:36;95183.78;;;10.08;100.00
73674;BME280;61975;48.660;10.164;2023-05-16T03:44:01;95188.94;;;10.09;100.00
73674;BME280;61975;48.660;10.164;2023-05-16T03:46:26;95186.97;;;10.13;100.00
73674;BME280;61975;48.660;10.164;2023-05-16T03:48:52;95194.50;;;10.16;100.00
73674;BME280;61975;48.660;10.164;2023-05-16T03:51:17;95194.13;;;10.14;100.00
73674;BME280;61975;48.660;10.164;2023-05-16T03:53:43;95191.34;;;10.18;100.00
73674;BME280;61975;48.660;10.164;2023-05-16T03:56:08;95189.34;;;10.15;100.00
73674;BME280;61975;48.660;10.164;2023-05-16T03:58:33;95193.31;;;10.10;100.00
73674;BME280;61975;48.660;10.164;2023-05-16T04:00:59;95192.16;;;10.18;100.00
73674;BME280;61975;48.660;10.164;2023-05-16T04:03:24;95194.13;;;10.14;100.00
73674;BME280;61975;48.660;10.164;2023-05-16T04:05:53;95199.66;;;10.14;100.00
73674;BME280;61975;48.660;10.164;2023-05-16T04:08:19;95202.03;;;10.12;100.00
73674;BME280;61975;48.660;10.164;2023-05-16T04:10:45;95194.94;;;10.18;100.00
73674;BME280;61975;48.660;10.164;2023-05-16T04:13:11;95202.06;;;10.19;100.00
73674;BME280;61975;48.660;10.164;2023-05-16T04:15:36;95192.50;;;10.13;100.00
73674;BME280;61975;48.660;10.164;2023-05-16T04:18:01;95195.72;;;10.22;100.00
73674;BME280;61975;48.660;10.164;2023-05-16T04:20:27;95202.91;;;10.34;100.00
73674;BME280;61975;48.660;10.164;2023-05-16T04:22:52;95199.34;;;10.37;100.00
73674;BME280;61975;48.660;10.164;2023-05-16T04:25:18;95206.88;;;10.43;100.00
73674;BME280;61975;48.660;10.164;2023-05-16T04:27:43;95206.91;;;10.50;100.00
73674;BME280;61975;48.660;10.164;2023-05-16T04:30:09;95208.50;;;10.58;100.00
73674;BME280;61975;48.660;10.164;2023-05-16T04:32:35;95217.25;;;10.67;100.00
73674;BME280;61975;48.660;10.164;2023-05-16T04:35:01;95218.06;;;10.75;100.00
73674;BME280;61975;48.660;10.164;2023-05-16T04:37:27;95228.34;;;10.74;100.00
73674;BME280;61975;48.660;10.164;2023-05-16T04:39:52;95225.59;;;10.81;100.00
73674;BME280;61975;48.660;10.164;2023-05-16T04:42:19;95225.59;;;10.88;100.00
73674;BME280;61975;48.660;10.164;2023-05-16T04:44:44;95215.28;;;10.92;100.00
73674;BME280;61975;48.660;10.164;2023-05-16T04:47:12;95220.44;;;11.01;100.00
73674;BME280;61975;48.660;10.164;2023-05-16T04:49:37;95226.41;;;11.06;100.00
73674;BME280;61975;48.660;10.164;2023-05-16T04:52:04;95234.72;;;11.13;100.00
73674;BME280;61975;48.660;10.164;2023-05-16T04:54:30;95229.97;;;11.17;100.00
73674;BME280;61975;48.660;10.164;2023-05-16T04:56:55;95237.13;;;11.22;100.00
73674;BME280;61975;48.660;10.164;2023-05-16T04:59:21;95229.19;;;11.27;100.00
73674;BME280;61975;48.660;10.164;2023-05-16T05:01:47;95237.13;;;11.33;100.00
73674;BME280;61975;48.660;10.164;2023-05-16T05:04:12;95237.91;;;11.37;100.00
73674;BME280;61975;48.660;10.164;2023-05-16T05:06:38;95234.75;;;11.38;100.00
73674;BME280;61975;48.660;10.164;2023-05-16T05:09:03;95236.34;;;11.36;100.00
73674;BME280;61975;48.660;10.164;2023-05-16T05:11:30;95239.50;;;11.38;100.00
73674;BME280;61975;48.660;10.164;2023-05-16T05:13:55;95241.88;;;11.39;100.00
73674;BME280;61975;48.660;10.164;2023-05-16T05:16:21;95239.09;;;11.39;100.00
73674;BME280;61975;48.660;10.164;2023-05-16T05:18:46;95237.88;;;11.47;100.00
73674;BME280;61975;48.660;10.164;2023-05-16T05:21:12;95233.13;;;11.48;100.00
73674;BME280;61975;48.660;10.164;2023-05-16T05:23:37;95239.88;;;11.54;100.00
73674;BME280;61975;48.660;10.164;2023-05-16T05:26:02;95242.66;;;11.54;100.00
73674;BME280;61975;48.660;10.164;2023-05-16T05:28:28;95237.91;;;11.54;100.00
73674;BME280;61975;48.660;10.164;2023-05-16T05:30:53;95231.53;;;11.61;100.00
73674;BME280;61975;48.660;10.164;2023-05-16T05:33:19;95235.91;;;11.55;100.00
73674;BME280;61975;48.660;10.164;2023-05-16T05:35:50;95240.25;;;11.56;100.00
73674;BME280;61975;48.660;10.164;2023-05-16T05:38:18;95238.31;;;11.53;100.00
73674;BME280;61975;48.660;10.164;2023-05-16T05:40:43;95246.22;;;11.47;100.00
73674;BME280;61975;48.660;10.164;2023-05-16T05:43:09;95239.09;;;11.53;100.00
73674;BME280;61975;48.660;10.164;2023-05-16T05:45:35;95233.91;;;11.59;100.00
73674;BME280;61975;48.660;10.164;2023-05-16T05:48:01;95241.47;;;11.55;100.00
73674;BME280;61975;48.660;10.164;2023-05-16T05:50:27;95235.53;;;11.63;100.00
73674;BME280;61975;48.660;10.164;2023-05-16T05:52:53;95240.28;;;11.52;100.00
73674;BME280;61975;48.660;10.164;2023-05-16T05:55:19;95233.56;;;11.64;100.00
73674;BME280;61975;48.660;10.164;2023-05-16T05:57:44;95241.47;;;11.76;100.00
73674;BME280;61975;48.660;10.164;2023-05-16T06:00:10;95247.00;;;11.83;100.00
73674;BME280;61975;48.660;10.164;2023-05-16T06:02:36;95248.19;;;11.96;100.00
73674;BME280;61975;48.660;10.164;2023-05-16T06:05:02;95241.38;;;12.04;100.00
73674;BME280;61975;48.660;10.164;2023-05-16T06:07:27;95251.69;;;12.14;100.00
73674;BME280;61975;48.660;10.164;2023-05-16T06:09:52;95244.09;;;12.25;100.00
73674;BME280;61975;48.660;10.164;2023-05-16T06:12:18;95242.53;;;12.24;100.00
73674;BME280;61975;48.660;10.164;2023-05-16T06:14:43;95256.44;;;12.24;100.00
73674;BME280;61975;48.660;10.164;2023-05-16T06:17:08;95252.03;;;12.26;100.00
73674;BME280;61975;48.660;10.164;2023-05-16T06:19:34;95252.81;;;12.34;100.00
73674;BME280;61975;48.660;10.164;2023-05-16T06:21:59;95257.59;;;12.37;100.00
73674;BME280;61975;48.660;10.164;2023-05-16T06:24:25;95258.41;;;12.27;100.00
73674;BME280;61975;48.660;10.164;2023-05-16T06:26:50;95259.22;;;12.27;100.00
73674;BME280;61975;48.660;10.164;2023-05-16T06:29:16;95261.59;;;12.25;100.00
73674;BME280;61975;48.660;10.164;2023-05-16T06:31:42;95269.59;;;12.13;100.00
73674;BME280;61975;48.660;10.164;2023-05-16T06:34:07;95252.03;;;12.26;100.00
73674;BME280;61975;48.660;10.164;2023-05-16T06:36:33;95263.16;;;12.33;100.00
73674;BME280;61975;48.660;10.164;2023-05-16T06:38:58;95256.38;;;12.38;100.00
73674;BME280;61975;48.660;10.164;2023-05-16T06:41:24;95260.34;;;12.40;100.00
73674;BME280;61975;48.660;10.164;2023-05-16T06:43:50;95265.47;;;12.52;100.00
73674;BME280;61975;48.660;10.164;2023-05-16T06:46:16;95260.28;;;12.58;100.00
73674;BME280;61975;48.660;10.164;2023-05-16T06:48:42;95251.03;;;12.75;100.00
73674;BME280;61975;48.660;10.164;2023-05-16T06:51:07;95251.00;;;12.78;100.00
73674;BME280;61975;48.660;10.164;2023-05-16T06:53:32;95248.53;;;12.94;99.36
73674;BME280;61975;48.660;10.164;2023-05-16T06:55:58;95253.22;;;13.08;97.77
73674;BME280;61975;48.660;10.164;2023-05-16T06:58:23;95254.06;;;13.05;97.34
73674;BME280;61975;48.660;10.164;2023-05-16T07:00:49;95250.03;;;13.13;97.17
73674;BME280;61975;48.660;10.164;2023-05-16T07:03:15;95254.78;;;13.16;96.69
73674;BME280;61975;48.660;10.164;2023-05-16T07:05:40;95254.03;;;13.08;96.83
73674;BME280;61975;48.660;10.164;2023-05-16T07:08:08;95258.00;;;13.11;97.13
73674;BME280;61975;48.660;10.164;2023-05-16T07:10:34;95257.63;;;13.09;98.46
73674;BME280;61975;48.660;10.164;2023-05-16T07:13:00;95262.06;;;12.96;98.24
73674;BME280;61975;48.660;10.164;2023-05-16T07:15:26;95262.81;;;13.07;97.89
73674;BME280;61975;48.660;10.164;2023-05-16T07:17:51;95262.47;;;12.91;100.00
73674;BME280;61975;48.660;10.164;2023-05-16T07:20:17;95272.78;;;13.01;99.34
73674;BME280;61975;48.660;10.164;2023-05-16T07:22:42;95255.72;;;12.88;100.00
73674;BME280;61975;48.660;10.164;2023-05-16T07:25:08;95259.66;;;13.05;100.00
73674;BME280;61975;48.660;10.164;2023-05-16T07:27:38;95254.84;;;13.05;100.00
73674;BME280;61975;48.660;10.164;2023-05-16T07:30:06;95262.44;;;12.94;99.73
73674;BME280;61975;48.660;10.164;2023-05-16T07:32:33;95264.38;;;13.08;99.90
73674;BME280;61975;48.660;10.164;2023-05-16T07:34:58;95269.22;;;13.00;100.00
73674;BME280;61975;48.660;10.164;2023-05-16T07:37:24;95270.00;;;13.01;100.00
73674;BME280;61975;48.660;10.164;2023-05-16T07:39:50;95269.19;;;13.04;99.88
73674;BME280;61975;48.660;10.164;2023-05-16T07:42:15;95281.53;;;12.99;99.74
73674;BME280;61975;48.660;10.164;2023-05-16T07:44:40;95278.34;;;13.04;98.44
73674;BME280;61975;48.660;10.164;2023-05-16T07:47:06;95281.94;;;13.05;99.56
73674;BME280;61975;48.660;10.164;2023-05-16T07:49:31;95280.66;;;13.16;98.62
73674;BME280;61975;48.660;10.164;2023-05-16T07:51:57;95283.38;;;13.27;97.60
73674;BME280;61975;48.660;10.164;2023-05-16T07:54:22;95288.91;;;13.34;97.30
73674;BME280;61975;48.660;10.164;2023-05-16T07:56:47;95287.31;;;13.33;96.57
73674;BME280;61975;48.660;10.164;2023-05-16T07:59:13;95288.13;;;13.30;96.45
73674;BME280;61975;48.660;10.164;2023-05-16T08:01:39;95286.97;;;13.20;96.07
73674;BME280;61975;48.660;10.164;2023-05-16T08:04:04;95287.38;;;13.22;96.09
73674;BME280;61975;48.660;10.164;2023-05-16T08:06:30;95293.72;;;13.26;94.69
73674;BME280;61975;48.660;10.164;2023-05-16T08:08:55;95295.38;;;13.13;95.46
73674;BME280;61975;48.660;10.164;2023-05-16T08:11:21;95285.16;;;12.96;96.04
73674;BME280;61975;48.660;10.164;2023-05-16T08:13:47;95287.47;;;13.12;97.13
73674;BME280;61975;48.660;10.164;2023-05-16T08:16:12;95291.91;;;12.99;97.76
73674;BME280;61975;48.660;10.164;2023-05-16T08:18:38;95298.63;;;13.08;97.34
73674;BME280;61975;48.660;10.164;2023-05-16T08:21:03;95312.59;;;12.91;97.43
73674;BME280;61975;48.660;10.164;2023-05-16T08:23:29;95296.28;;;13.03;97.39
73674;BME280;61975;48.660;10.164;2023-05-16T08:25:54;95292.63;;;13.10;97.48
73674;BME280;61975;48.660;10.164;2023-05-16T08:28:20;95298.94;;;13.21;96.70
73674;BME280;61975;48.660;10.164;2023-05-16T08:30:45;95292.16;;;13.22;95.63
73674;BME280;61975;48.660;10.164;2023-05-16T08:33:11;95299.28;;;13.30;95.51
73674;BME280;61975;48.660;10.164;2023-05-16T08:35:41;95300.09;;;13.27;95.51
73674;BME280;61975;48.660;10.164;2023-05-16T08:38:07;95307.19;;;13.35;96.26
73674;BME280;61975;48.660;10.164;2023-05-16T08:40:33;95306.44;;;13.31;95.55
73674;BME280;61975;48.660;10.164;2023-05-16T08:42:58;95301.31;;;13.26;94.57
73674;BME280;61975;48.660;10.164;2023-05-16T08:45:24;95302.84;;;13.34;94.89
73674;BME280;61975;48.660;10.164;2023-05-16T08:47:53;95298.38;;;13.43;94.01
73674;BME280;61975;48.660;10.164;2023-05-16T08:50:19;95303.88;;;13.54;93.27
73674;BME280;61975;48.660;10.164;2023-05-16T08:52:46;95315.91;;;13.44;93.79
73674;BME280;61975;48.660;10.164;2023-05-16T08:55:15;95311.50;;;13.43;94.58
73674;BME280;61975;48.660;10.164;2023-05-16T08:57:41;95308.69;;;13.50;93.92
73674;BME280;61975;48.660;10.164;2023-05-16T09:00:07;95307.09;;;13.52;93.78
73674;BME280;61975;48.660;10.164;2023-05-16T09:02:38;95289.00;;;13.71;92.15
73674;BME280;61975;48.660;10.164;2023-05-16T09:05:04;95294.00;;;13.90;91.78
73674;BME280;61975;48.660;10.164;2023-05-16T09:07:32;95286.38;;;13.94;90.95
73674;BME280;61975;48.660;10.164;2023-05-16T09:09:57;95279.81;;;14.15;90.68
73674;BME280;61975;48.660;10.164;2023-05-16T09:12:23;95296.47;;;14.22;87.74
73674;BME280;61975;48.660;10.164;2023-05-16T09:14:48;95290.84;;;14.29;86.08
73674;BME280;61975;48.660;10.164;2023-05-16T09:17:14;95300.88;;;14.19;86.85
73674;BME280;61975;48.660;10.164;2023-05-16T09:19:41;95294.09;;;14.20;86.72
73674;BME280;61975;48.660;10.164;2023-05-16T09:22:11;95296.03;;;14.30;87.84
73674;BME280;61975;48.660;10.164;2023-05-16T09:24:44;95295.78;;;14.51;87.79
73674;BME280;61975;48.660;10.164;2023-05-16T09:27:11;95300.50;;;14.58;86.24
73674;BME280;61975;48.660;10.164;2023-05-16T09:29:39;95308.63;;;14.42;86.33
73674;BME280;61975;48.660;10.164;2023-05-16T09:32:23;95303.56;;;14.33;88.74
73674;BME280;61975;48.660;10.164;2023-05-16T09:34:49;95301.91;;;14.39;87.31
73674;BME280;61975;48.660;10.164;2023-05-16T09:37:16;95297.53;;;14.38;86.98
73674;BME280;61975;48.660;10.164;2023-05-16T09:42:12;95307.00;;;14.07;89.16
73674;BME280;61975;48.660;10.164;2023-05-16T09:44:39;95317.34;;;14.07;90.52
73674;BME280;61975;48.660;10.164;2023-05-16T09:47:05;95311.78;;;14.07;90.45
73674;BME280;61975;48.660;10.164;2023-05-16T09:49:31;95311.47;;;13.98;90.63
73674;BME280;61975;48.660;10.164;2023-05-16T09:52:01;95316.84;;;14.19;89.50
73674;BME280;61975;48.660;10.164;2023-05-16T09:54:31;95303.25;;;14.24;89.69
73674;BME280;61975;48.660;10.164;2023-05-16T09:56:57;95314.50;;;14.14;90.00
73674;BME280;61975;48.660;10.164;2023-05-16T09:59:22;95307.06;;;14.00;91.22
73674;BME280;61975;48.660;10.164;2023-05-16T10:01:49;95305.22;;;13.87;92.09
73674;BME280;61975;48.660;10.164;2023-05-16T10:04:15;95316.31;;;13.94;91.93
73674;BME280;61975;48.660;10.164;2023-05-16T10:06:41;95308.28;;;13.96;92.08
73674;BME280;61975;48.660;10.164;2023-05-16T10:09:10;95308.00;;;13.87;92.03
73674;BME280;61975;48.660;10.164;2023-05-16T10:11:41;95313.66;;;13.76;90.86
73674;BME280;61975;48.660;10.164;2023-05-16T10:14:08;95312.44;;;13.77;91.04
73674;BME280;61975;48.660;10.164;2023-05-16T10:16:34;95311.28;;;13.74;91.09
73674;BME280;61975;48.660;10.164;2023-05-16T10:19:02;95310.94;;;13.69;91.92
73674;BME280;61975;48.660;10.164;2023-05-16T10:21:28;95322.47;;;13.71;92.95
73674;BME280;61975;48.660;10.164;2023-05-16T10:23:56;95315.09;;;13.47;94.39
73674;BME280;61975;48.660;10.164;2023-05-16T10:26:23;95307.50;;;13.51;97.54
73674;BME280;61975;48.660;10.164;2023-05-16T10:28:50;95325.91;;;13.38;98.85
73674;BME280;61975;48.660;10.164;2023-05-16T10:31:17;95312.91;;;13.14;100.00
73674;BME280;61975;48.660;10.164;2023-05-16T10:33:43;95326.41;;;13.26;100.00
73674;BME280;61975;48.660;10.164;2023-05-16T10:36:09;95330.06;;;13.09;100.00
73674;BME280;61975;48.660;10.164;2023-05-16T10:38:37;95328.91;;;12.96;100.00
73674;BME280;61975;48.660;10.164;2023-05-16T10:41:03;95325.81;;;12.80;100.00
73674;BME280;61975;48.660;10.164;2023-05-16T10:43:29;95329.03;;;12.75;100.00
73674;BME280;61975;48.660;10.164;2023-05-16T10:48:31;95333.84;;;12.64;100.00
73674;BME280;61975;48.660;10.164;2023-05-16T10:50:57;95326.31;;;12.54;100.00
73674;BME280;61975;48.660;10.164;2023-05-16T10:53:33;95329.41;;;12.70;100.00
73674;BME280;61975;48.660;10.164;2023-05-16T11:04:10;95337.69;;;12.91;100.00
73674;BME280;61975;48.660;10.164;2023-05-16T11:14:26;95346.84;;;12.95;100.00
73674;BME280;61975;48.660;10.164;2023-05-16T11:17:20;95356.00;;;12.99;100.00
73674;BME280;61975;48.660;10.164;2023-05-16T11:19:57;95361.13;;;13.04;100.00
73674;BME280;61975;48.660;10.164;2023-05-16T11:22:28;95353.66;;;12.80;100.00
73674;BME280;61975;48.660;10.164;2023-05-16T11:25:05;95352.00;;;12.93;100.00
73674;BME280;61975;48.660;10.164;2023-05-16T11:27:46;95357.59;;;12.96;100.00
73674;BME280;61975;48.660;10.164;2023-05-16T11:30:16;95364.66;;;13.15;100.00
73674;BME280;61975;48.660;10.164;2023-05-16T11:32:44;95358.31;;;13.11;98.77
73674;BME280;61975;48.660;10.164;2023-05-16T11:35:12;95357.13;;;13.08;98.40
73674;BME280;61975;48.660;10.164;2023-05-16T11:37:38;95361.94;;;13.01;98.89
73674;BME280;61975;48.660;10.164;2023-05-16T11:40:05;95365.50;;;12.98;98.55
73674;BME280;61975;48.660;10.164;2023-05-16T11:42:37;95363.97;;;12.90;98.25
73674;BME280;61975;48.660;10.164;2023-05-16T11:45:16;95355.56;;;12.97;98.71
73674;BME280;61975;48.660;10.164;2023-05-16T11:47:44;95365.53;;;12.91;99.06
73674;BME280;61975;48.660;10.164;2023-05-16T11:50:13;95361.88;;;13.15;98.50
73674;BME280;61975;48.660;10.164;2023-05-16T11:52:41;95365.06;;;13.13;96.31
73674;BME280;61975;48.660;10.164;2023-05-16T11:55:08;95359.88;;;13.19;96.16
73674;BME280;61975;48.660;10.164;2023-05-16T11:57:37;95352.66;;;13.25;94.07
73674;BME280;61975;48.660;10.164;2023-05-16T12:00:16;95360.63;;;13.30;94.13
73674;BME280;61975;48.660;10.164;2023-05-16T12:02:46;95346.22;;;13.35;94.37
73674;BME280;61975;48.660;10.164;2023-05-16T12:05:12;95351.72;;;13.49;93.85
73674;BME280;61975;48.660;10.164;2023-05-16T12:07:38;95352.09;;;13.51;90.53
73674;BME280;61975;48.660;10.164;2023-05-16T12:12:31;95344.34;;;13.76;88.35
73674;BME280;61975;48.660;10.164;2023-05-16T12:14:57;95361.78;;;13.87;87.53
73674;BME280;61975;48.660;10.164;2023-05-16T12:17:22;95347.47;;;13.85;83.94
73674;BME280;61975;48.660;10.164;2023-05-16T12:19:49;95336.63;;;13.94;83.60
73674;BME280;61975;48.660;10.164;2023-05-16T12:22:18;95338.84;;;14.13;81.47
73674;BME280;61975;48.660;10.164;2023-05-16T12:24:44;95342.31;;;14.28;80.59
73674;BME280;61975;48.660;10.164;2023-05-16T12:27:10;95351.03;;;14.33;78.76
73674;BME280;61975;48.660;10.164;2023-05-16T12:29:36;95358.22;;;14.31;76.49
73674;BME280;61975;48.660;10.164;2023-05-16T12:32:02;95335.75;;;14.45;76.43
73674;BME280;61975;48.660;10.164;2023-05-16T12:34:29;95338.78;;;14.57;73.91
73674;BME280;61975;48.660;10.164;2023-05-16T12:36:55;95328.41;;;14.61;73.14
73674;BME280;61975;48.660;10.164;2023-05-16T12:39:21;95331.38;;;14.77;72.56
73674;BME280;61975;48.660;10.164;2023-05-16T12:41:47;95339.22;;;14.89;72.37
73674;BME280;61975;48.660;10.164;2023-05-16T12:44:14;95330.09;;;14.85;70.93
73674;BME280;61975;48.660;10.164;2023-05-16T12:46:45;95332.25;;;14.71;69.26
73674;BME280;61975;48.660;10.164;2023-05-16T12:49:11;95323.66;;;14.55;70.48
73674;BME280;61975;48.660;10.164;2023-05-16T12:51:38;95327.97;;;14.63;70.85
73674;BME280;61975;48.660;10.164;2023-05-16T12:54:10;95323.41;;;14.76;70.14
73674;BME280;61975;48.660;10.164;2023-05-16T12:56:39;95325.78;;;14.77;70.07
73674;BME280;61975;48.660;10.164;2023-05-16T12:59:05;95320.44;;;14.90;68.66
73674;BME280;61975;48.660;10.164;2023-05-16T13:01:31;95323.84;;;15.04;68.04
73674;BME280;61975;48.660;10.164;2023-05-16T13:03:56;95318.22;;;15.08;66.83
73674;BME280;61975;48.660;10.164;2023-05-16T13:06:22;95332.94;;;15.12;66.12
73674;BME280;61975;48.660;10.164;2023-05-16T13:08:47;95332.13;;;15.15;67.10
73674;BME280;61975;48.660;10.164;2023-05-16T13:11:13;95321.88;;;15.01;67.71
73674;BME280;61975;48.660;10.164;2023-05-16T13:13:38;95326.25;;;15.02;69.11
73674;BME280;61975;48.660;10.164;2023-05-16T13:16:04;95325.34;;;15.12;69.55